Latest Weather Observations for Kyabram

IDV60801

Issued at 9:31 pm EST Sunday 29 May 2016 (issued every 30 minutes, with the page automatically refreshed every 10 minutes)

About weather observations | Map of weather stations | Latest weather observations for VIC | Other Formats
Station Details ID: 080091 Name: KYABRAM Lat: -36.34 Lon: 145.06 Height: 105.0 m
Data from the previous 72 hours. | See also: Recent months at Kyabram
Date/Time
EST
Temp
°C
App
Temp
°C
Dew
Point
Rel
Hum
%
Delta-T
°C
Wind Press
QNH
hPa
Press
MSL
hPa
Rain
since 9 am
mm
Dir
 
Spd
km/h
Gust
km/h
Spd
kts
Gust
kts
29/09:30pm 5.3 4.1 4.6 95 0.3 CALM 0 0 0 0 - - 0.2
29/09:00pm 6.1 5.0 4.9 92 0.5 CALM 0 0 0 0 - - 0.2
29/08:30pm 7.0 5.9 5.2 88 0.8 CALM 0 0 0 0 - - 0.2
29/08:00pm 7.9 6.9 5.5 85 1.1 CALM 0 0 0 0 - - 0.2
29/07:30pm 8.9 7.9 5.5 79 1.5 CALM 0 0 0 0 - - 0.2
29/07:00pm 9.0 8.1 5.9 81 1.4 CALM 0 0 0 0 - - 0.2
29/06:30pm 8.8 7.9 6.1 83 1.2 CALM 0 0 0 0 - - 0.2
29/06:00pm 9.2 8.1 5.0 75 1.9 CALM 0 0 0 0 - - 0.2
29/05:30pm 10.7 9.7 5.7 71 2.3 CALM 0 0 0 0 - - 0.2
29/05:00pm 11.5 10.5 5.4 66 2.8 CALM 0 0 0 0 - - 0.2
29/04:30pm 12.2 11.0 4.7 60 3.4 CALM 0 0 0 0 - - 0.2
29/04:00pm 12.3 11.2 5.0 61 3.4 CALM 0 0 0 0 - - 0.2
29/03:30pm 13.2 12.1 4.9 57 3.9 CALM 0 0 0 0 - - 0.2
29/03:00pm 12.6 11.3 4.1 56 3.9 CALM 0 0 0 0 - - 0.2
29/02:30pm 13.3 12.1 4.7 56 4.0 CALM 0 0 0 0 - - 0.2
29/02:00pm 12.9 10.8 4.1 55 4.0 SW 4 13 2 7 - - 0.0
29/01:30pm 11.8 9.5 4.8 62 3.2 SW 6 15 3 8 - - 0.0
29/01:00pm 12.5 9.7 5.0 60 3.5 SW 9 13 5 7 - - 0.0
29/12:30pm 11.7 8.7 4.0 59 3.5 WSW 9 17 5 9 - - 0.0
29/12:00pm 11.8 8.5 4.8 62 3.2 SW 11 15 6 8 - - 0.0
29/11:30am 11.5 8.3 5.2 65 2.9 SSW 11 17 6 9 - - 0.0
29/11:00am 11.0 7.8 5.1 67 2.7 SSW 11 19 6 10 - - 0.0
29/10:30am 10.3 7.5 5.3 71 2.3 SSW 9 15 5 8 - - 0.0
29/10:00am 9.0 6.8 5.2 77 1.7 SW 6 13 3 7 - - 0.0
29/09:30am 7.7 5.8 4.7 81 1.3 SW 4 11 2 6 - - 0.0
29/09:00am 6.2 5.2 5.5 95 0.3 CALM 0 0 0 0 - - 0.0
29/08:30am 4.3 3.0 4.2 99 0.0 CALM 0 0 0 0 - - 0.0
29/08:00am 2.2 0.5 2.1 99 0.0 CALM 0 0 0 0 - - 0.0
29/07:30am 1.6 -0.2 1.5 99 0.0 CALM 0 0 0 0 - - 0.0
29/07:00am 1.7 0.0 1.6 99 0.0 CALM 0 0 0 0 - - 0.0
29/06:30am 1.9 0.2 1.8 99 0.0 CALM 0 0 0 0 - - 0.0
29/06:00am 2.2 0.5 2.1 99 0.0 CALM 0 0 0 0 - - 0.0
29/05:30am 2.2 0.5 2.1 99 0.0 CALM 0 0 0 0 - - 0.0
29/05:00am 2.4 0.8 2.3 99 0.0 CALM 0 0 0 0 - - 0.0
29/04:30am 2.5 0.9 2.4 99 0.0 CALM 0 0 0 0 - - 0.0
29/04:00am 2.3 0.7 2.2 99 0.0 CALM 0 0 0 0 - - 0.0
29/03:30am 2.2 0.5 2.1 99 0.0 CALM 0 0 0 0 - - 0.0
29/03:00am 2.6 1.0 2.5 99 0.0 CALM 0 0 0 0 - - 0.0
29/02:30am 3.2 1.7 3.1 99 0.0 CALM 0 0 0 0 - - 0.0
29/02:00am 3.6 2.2 3.3 98 0.1 CALM 0 0 0 0 - - 0.0
29/01:30am 3.9 2.5 3.3 96 0.2 CALM 0 0 0 0 - - 0.0
29/01:00am 4.3 3.0 3.9 97 0.2 CALM 0 0 0 0 - - 0.0
29/12:30am 4.6 3.3 3.9 95 0.3 CALM 0 0 0 0 - - 0.0
29/12:00am 5.0 3.7 4.1 94 0.4 CALM 0 0 0 0 - - 0.0
 
Date/Time
EST
Temp
°C
App
Temp
°C
Dew
Point
Rel
Hum
%
Delta-T
°C
Wind Press
QNH
hPa
Press
MSL
hPa
Rain
since 9 am
mm
Dir
 
Spd
km/h
Gust
km/h
Spd
kts
Gust
kts
28/11:30pm 5.1 3.8 4.2 94 0.4 CALM 0 0 0 0 - - 0.0
28/11:00pm 5.3 4.0 4.3 93 0.4 CALM 0 0 0 0 - - 0.0
28/10:30pm 6.0 4.8 4.6 91 0.6 CALM 0 0 0 0 - - 0.0
28/10:00pm 6.4 5.2 4.7 89 0.7 CALM 0 0 0 0 - - 0.0
28/09:30pm 7.2 6.2 5.5 89 0.8 CALM 0 0 0 0 - - 0.0
28/09:00pm 7.1 6.0 5.3 88 0.8 CALM 0 0 0 0 - - 0.0
28/08:30pm 8.1 6.0 5.9 86 1.0 SW 6 9 3 5 - - 0.0
28/08:00pm 9.1 6.5 6.2 82 1.3 SSW 9 19 5 10 - - 0.0
28/07:30pm 8.4 6.6 7.0 91 0.7 WSW 6 9 3 5 - - 0.0
28/07:00pm 9.3 7.6 7.4 88 0.9 SSW 6 9 3 5 - - 0.0
28/06:30pm 9.8 7.9 7.7 87 1.0 SSW 7 9 4 5 - - 0.0
28/06:00pm 10.1 9.4 8.4 89 0.8 WNW 2 9 1 5 - - 0.0
28/05:30pm 10.7 9.5 7.9 83 1.4 W 4 13 2 7 - - 0.0
28/05:00pm 10.9 8.6 7.4 79 1.7 SSW 9 11 5 6 - - 0.0
28/04:30pm 11.4 9.1 7.3 76 2.0 S 9 13 5 7 - - 0.0
28/04:00pm 12.1 9.0 7.4 73 2.3 S 13 20 7 11 - - 0.0
28/03:30pm 12.5 8.6 7.2 70 2.6 SSW 17 22 9 12 - - 0.0
28/03:00pm 13.0 8.6 6.6 65 3.1 SSW 19 26 10 14 - - 0.0
28/02:30pm 13.2 8.6 6.5 64 3.2 SSW 20 33 11 18 - - 0.0
28/02:00pm 13.2 9.7 7.2 67 2.9 SSW 15 24 8 13 - - 0.0
28/01:30pm 13.8 9.9 7.3 65 3.2 SSW 17 26 9 14 - - 0.0
28/01:00pm 13.0 9.0 6.8 66 3.0 S 17 30 9 16 - - 0.0
28/12:30pm 13.7 9.5 7.5 66 3.1 S 19 30 10 16 - - 0.0
28/12:00pm 12.2 8.0 7.3 72 2.4 SSW 19 26 10 14 - - 0.0
28/11:30am 12.4 8.6 7.7 73 2.3 SSW 17 26 9 14 - - 0.0
28/11:00am 11.8 8.5 8.1 78 1.8 S 15 24 8 13 - - 0.0
28/10:30am 11.1 8.2 8.0 81 1.5 S 13 20 7 11 - - 0.0
28/10:00am 10.3 7.3 7.9 85 1.2 S 13 20 7 11 - - 0.0
28/09:30am 9.0 5.5 7.0 87 0.9 S 15 20 8 11 - - 0.0
28/09:00am 8.0 5.2 7.1 94 0.4 SSW 11 15 6 8 - - 12.0
28/08:30am 7.8 5.1 7.4 97 0.2 SSW 11 15 6 8 - - 12.0
28/08:00am 7.2 6.1 7.1 99 0.0 SW 2 7 1 4 - - 12.0
28/07:30am 7.3 6.7 7.2 99 0.0 CALM 0 9 0 5 - - 12.0
28/07:00am 7.6 7.0 7.5 99 0.0 CALM 0 0 0 0 - - 12.0
28/06:30am 8.1 7.6 8.0 99 0.0 CALM 0 0 0 0 - - 12.0
28/06:00am 8.1 7.6 8.0 99 0.0 CALM 0 0 0 0 - - 12.0
28/05:30am 8.1 7.3 8.0 99 0.0 SSE 2 7 1 4 - - 12.0
28/05:00am 8.0 5.8 7.9 99 0.0 SE 9 13 5 7 - - 11.8
28/04:30am 7.9 5.7 7.8 99 0.0 SE 9 15 5 8 - - 11.4
28/04:00am 7.8 4.8 7.7 99 0.0 SE 13 20 7 11 - - 11.2
28/03:30am 7.7 4.7 7.6 99 0.0 SE 13 20 7 11 - - 10.6
28/03:00am 7.7 4.7 7.6 99 0.0 SE 13 19 7 10 - - 9.8
28/02:30am 7.8 5.2 7.7 99 0.0 ESE 11 17 6 9 - - 8.8
28/02:00am 8.0 5.8 7.9 99 0.0 ESE 9 13 5 7 - - 8.0
28/01:30am 8.3 6.6 8.2 99 0.0 ESE 7 15 4 8 - - 7.6
28/01:00am 8.7 7.2 8.6 99 0.0 SE 6 11 3 6 - - 7.2
28/12:30am 8.9 6.9 8.8 99 0.0 ESE 9 13 5 7 - - 6.4
28/12:00am 9.0 7.4 8.9 99 0.0 ESE 7 11 4 6 - - 5.2
 
Date/Time
EST
Temp
°C
App
Temp
°C
Dew
Point
Rel
Hum
%
Delta-T
°C
Wind Press
QNH
hPa
Press
MSL
hPa
Rain
since 9 am
mm
Dir
 
Spd
km/h
Gust
km/h
Spd
kts
Gust
kts
27/11:30pm 9.1 8.9 9.0 99 0.0 CALM 0 0 0 0 - - 4.6
27/11:00pm 9.1 8.9 9.0 99 0.0 CALM 0 0 0 0 - - 3.2
27/10:30pm 9.2 8.3 9.1 99 0.0 N 4 9 2 5 - - 2.6
27/10:00pm 9.4 7.9 9.1 98 0.1 N 7 11 4 6 - - 0.6
27/09:30pm 9.3 6.9 8.5 95 0.4 NNW 11 17 6 9 - - 0.4
27/09:00pm 9.7 7.4 7.6 87 1.0 N 9 13 5 7 - - 0.0
27/08:30pm 9.5 7.5 7.1 85 1.1 NNE 7 11 4 6 - - 0.0
27/08:00pm 9.0 7.8 6.6 85 1.1 NW 2 11 1 6 - - 0.0
27/07:30pm 8.5 7.7 6.5 87 0.9 CALM 0 0 0 0 - - 0.0
27/07:00pm 8.9 8.1 6.5 85 1.1 CALM 0 0 0 0 - - 0.0
27/06:30pm 8.9 8.2 7.0 88 0.9 CALM 0 0 0 0 - - 0.0
27/06:00pm 8.9 8.1 6.3 84 1.2 CALM 0 0 0 0 - - 0.0
27/05:30pm 9.5 8.8 6.8 83 1.3 CALM 0 0 0 0 - - 0.0
27/05:00pm 10.9 10.1 6.5 74 2.1 CALM 0 0 0 0 - - 0.0
27/04:30pm 13.1 12.1 5.8 61 3.5 CALM 0 0 0 0 - - 0.0
27/04:00pm 13.3 12.4 5.9 61 3.5 CALM 0 0 0 0 - - 0.0
27/03:30pm 13.9 13.0 6.0 59 3.8 CALM 0 0 0 0 - - 0.0
27/03:00pm 13.0 11.5 6.8 66 3.0 WNW 4 9 2 5 - - 0.0
27/02:30pm 13.2 10.6 6.3 63 3.3 W 9 15 5 8 - - 0.0
27/02:00pm 14.3 11.5 6.9 61 3.6 WNW 11 19 6 10 - - 0.0
27/01:30pm 13.4 10.9 6.7 64 3.2 W 9 15 5 8 - - 0.0
27/01:00pm 13.6 11.4 7.8 68 2.9 WSW 9 17 5 9 - - 0.0
27/12:30pm 12.9 10.1 7.1 68 2.8 W 11 19 6 10 - - 0.0
27/12:00pm 12.4 9.6 6.9 69 2.7 WSW 11 19 6 10 - - 0.0
27/11:30am 12.3 9.8 8.4 77 1.9 W 11 17 6 9 - - 0.0
27/11:00am 11.5 9.4 8.4 81 1.5 W 9 19 5 10 - - 0.0
27/10:30am 10.4 7.9 8.2 86 1.1 W 11 17 6 9 - - 0.0
27/10:00am 9.4 7.2 7.7 89 0.8 W 9 15 5 8 - - 0.0
27/09:30am 8.7 6.4 7.6 93 0.5 W 9 17 5 9 - - 0.0
27/09:00am 7.5 4.7 6.9 96 0.3 W 11 17 6 9 - - 1.2
27/08:30am 6.3 3.7 6.2 99 0.0 W 9 13 5 7 - - 1.2
27/08:00am 4.8 2.3 4.7 99 0.0 WNW 7 13 4 7 - - 1.2
27/07:30am 3.9 1.2 3.8 99 0.0 W 7 11 4 6 - - 1.2
27/07:00am 3.7 1.9 3.6 99 0.0 WNW 2 7 1 4 - - 1.2
27/06:30am 3.6 2.2 3.5 99 0.0 CALM 0 0 0 0 - - 1.0
27/06:00am 3.9 2.2 3.8 99 0.0 WNW 2 6 1 3 - - 1.0
27/05:30am 4.3 1.7 4.2 99 0.0 WNW 7 9 4 5 - - 1.0
27/05:00am 4.3 1.7 4.2 99 0.0 WNW 7 9 4 5 - - 1.0
27/04:30am 4.4 2.4 4.3 99 0.0 WNW 4 6 2 3 - - 1.0
27/04:00am 4.6 3.4 4.5 99 0.0 CALM 0 0 0 0 - - 1.0
27/03:30am 5.0 3.5 4.9 99 0.0 WNW 2 6 1 3 - - 1.0
27/03:00am 5.3 3.1 5.2 99 0.0 W 6 7 3 4 - - 1.0
27/02:30am 5.4 3.2 5.1 98 0.1 W 6 7 3 4 - - 1.0
27/02:00am 5.6 3.4 5.2 97 0.2 WNW 6 7 3 4 - - 1.0
27/01:30am 6.0 3.6 5.1 94 0.4 W 7 9 4 5 - - 1.0
27/01:00am 6.4 4.1 5.8 96 0.3 W 7 11 4 6 - - 1.0
27/12:30am 6.4 4.1 5.5 94 0.4 W 7 11 4 6 - - 1.0
27/12:00am 6.9 4.3 6.0 94 0.4 W 9 15 5 8 - - 1.0
 
Date/Time
EST
Temp
°C
App
Temp
°C
Dew
Point
Rel
Hum
%
Delta-T
°C
Wind Press
QNH
hPa
Press
MSL
hPa
Rain
since 9 am
mm
Dir
 
Spd
km/h
Gust
km/h
Spd
kts
Gust
kts
26/11:30pm 7.3 4.7 5.9 91 0.6 W 9 15 5 8 - - 1.0
26/11:00pm 8.0 5.4 6.1 88 0.9 W 9 17 5 9 - - 1.0
26/10:30pm 8.1 5.1 6.1 87 0.9 W 11 17 6 9 - - 1.0
26/10:00pm 8.0 5.4 6.3 89 0.8 W 9 13 5 7 - - 1.0

Other Formats:

Comma delimited format used in spreadsheet applications
http://www.bom.gov.au/fwo/IDV60801/IDV60801.95833.axf

JavaScript Object Notation format (JSON) in row-major order
http://www.bom.gov.au/fwo/IDV60801/IDV60801.95833.json